sensor_id;sensor_type;location;lat;lon;timestamp;P1;durP1;ratioP1;P2;durP2;ratioP2
18661;SDS011;61528;49.456;11.098;2023-02-19T00:01:27;5.90;;;5.40;;
18661;SDS011;61528;49.456;11.098;2023-02-19T00:03:56;5.60;;;5.10;;
18661;SDS011;61528;49.456;11.098;2023-02-19T00:06:23;5.90;;;5.40;;
18661;SDS011;61528;49.456;11.098;2023-02-19T00:08:50;6.20;;;5.30;;
18661;SDS011;61528;49.456;11.098;2023-02-19T00:11:19;5.40;;;4.90;;
18661;SDS011;61528;49.456;11.098;2023-02-19T00:13:47;6.10;;;4.93;;
18661;SDS011;61528;49.456;11.098;2023-02-19T00:16:15;5.03;;;4.53;;
18661;SDS011;61528;49.456;11.098;2023-02-19T00:18:42;5.20;;;4.70;;
18661;SDS011;61528;49.456;11.098;2023-02-19T00:21:08;4.97;;;4.47;;
18661;SDS011;61528;49.456;11.098;2023-02-19T00:23:34;4.80;;;4.33;;
18661;SDS011;61528;49.456;11.098;2023-02-19T00:26:04;5.10;;;4.70;;
18661;SDS011;61528;49.456;11.098;2023-02-19T00:28:31;4.77;;;4.37;;
18661;SDS011;61528;49.456;11.098;2023-02-19T00:33:30;4.13;;;3.73;;
18661;SDS011;61528;49.456;11.098;2023-02-19T00:36:00;4.47;;;4.07;;
18661;SDS011;61528;49.456;11.098;2023-02-19T00:38:26;4.40;;;4.00;;
18661;SDS011;61528;49.456;11.098;2023-02-19T00:40:53;4.57;;;4.10;;
18661;SDS011;61528;49.456;11.098;2023-02-19T00:43:19;4.40;;;4.00;;
18661;SDS011;61528;49.456;11.098;2023-02-19T00:45:46;4.57;;;4.20;;
18661;SDS011;61528;49.456;11.098;2023-02-19T00:48:12;5.03;;;4.63;;
18661;SDS011;61528;49.456;11.098;2023-02-19T00:50:38;5.57;;;5.07;;
18661;SDS011;61528;49.456;11.098;2023-02-19T00:53:04;5.37;;;4.87;;
18661;SDS011;61528;49.456;11.098;2023-02-19T00:55:31;4.60;;;4.20;;
18661;SDS011;61528;49.456;11.098;2023-02-19T00:57:57;5.50;;;5.00;;
18661;SDS011;61528;49.456;11.098;2023-02-19T01:00:23;5.37;;;4.87;;
18661;SDS011;61528;49.456;11.098;2023-02-19T01:02:49;6.20;;;5.10;;
18661;SDS011;61528;49.456;11.098;2023-02-19T01:05:16;5.77;;;5.27;;
18661;SDS011;61528;49.456;11.098;2023-02-19T01:07:42;5.40;;;4.90;;
18661;SDS011;61528;49.456;11.098;2023-02-19T01:10:08;5.47;;;4.97;;
18661;SDS011;61528;49.456;11.098;2023-02-19T01:12:35;6.40;;;5.80;;
18661;SDS011;61528;49.456;11.098;2023-02-19T01:15:01;5.23;;;4.80;;
18661;SDS011;61528;49.456;11.098;2023-02-19T01:17:28;5.97;;;5.47;;
18661;SDS011;61528;49.456;11.098;2023-02-19T01:19:54;5.60;;;5.10;;
18661;SDS011;61528;49.456;11.098;2023-02-19T01:22:20;6.13;;;5.53;;
18661;SDS011;61528;49.456;11.098;2023-02-19T01:24:47;6.23;;;5.60;;
18661;SDS011;61528;49.456;11.098;2023-02-19T01:27:13;6.80;;;5.37;;
18661;SDS011;61528;49.456;11.098;2023-02-19T01:29:39;5.90;;;5.40;;
18661;SDS011;61528;49.456;11.098;2023-02-19T01:32:06;6.00;;;5.40;;
18661;SDS011;61528;49.456;11.098;2023-02-19T01:34:32;5.60;;;5.10;;
18661;SDS011;61528;49.456;11.098;2023-02-19T01:36:58;6.00;;;5.40;;
18661;SDS011;61528;49.456;11.098;2023-02-19T01:39:25;5.87;;;5.37;;
18661;SDS011;61528;49.456;11.098;2023-02-19T01:41:51;6.03;;;5.43;;
18661;SDS011;61528;49.456;11.098;2023-02-19T01:46:44;6.97;;;6.23;;
18661;SDS011;61528;49.456;11.098;2023-02-19T01:52:22;6.37;;;5.77;;
18661;SDS011;61528;49.456;11.098;2023-02-19T01:54:29;7.00;;;6.40;;
18661;SDS011;61528;49.456;11.098;2023-02-19T01:56:56;7.13;;;6.43;;
18661;SDS011;61528;49.456;11.098;2023-02-19T01:59:22;6.70;;;6.07;;
18661;SDS011;61528;49.456;11.098;2023-02-19T02:01:49;7.43;;;6.47;;
18661;SDS011;61528;49.456;11.098;2023-02-19T02:04:15;7.37;;;5.80;;
18661;SDS011;61528;49.456;11.098;2023-02-19T02:06:52;7.50;;;6.73;;
18661;SDS011;61528;49.456;11.098;2023-02-19T02:09:19;6.73;;;6.03;;
18661;SDS011;61528;49.456;11.098;2023-02-19T02:12:04;6.80;;;5.77;;
18661;SDS011;61528;49.456;11.098;2023-02-19T02:14:32;6.33;;;5.73;;
18661;SDS011;61528;49.456;11.098;2023-02-19T02:27:15;6.13;;;5.40;;
18661;SDS011;61528;49.456;11.098;2023-02-19T02:32:23;6.23;;;5.07;;
18661;SDS011;61528;49.456;11.098;2023-02-19T02:34:58;6.40;;;5.37;;
18661;SDS011;61528;49.456;11.098;2023-02-19T02:37:27;5.20;;;4.70;;
18661;SDS011;61528;49.456;11.098;2023-02-19T02:39:55;5.27;;;4.70;;
18661;SDS011;61528;49.456;11.098;2023-02-19T02:42:22;4.57;;;4.10;;
18661;SDS011;61528;49.456;11.098;2023-02-19T02:44:52;5.43;;;4.00;;
18661;SDS011;61528;49.456;11.098;2023-02-19T02:47:38;4.40;;;4.00;;
18661;SDS011;61528;49.456;11.098;2023-02-19T02:50:12;4.80;;;4.20;;
18661;SDS011;61528;49.456;11.098;2023-02-19T02:52:40;4.47;;;4.07;;
18661;SDS011;61528;49.456;11.098;2023-02-19T02:55:41;4.43;;;4.03;;
18661;SDS011;61528;49.456;11.098;2023-02-19T02:58:09;4.53;;;3.97;;
18661;SDS011;61528;49.456;11.098;2023-02-19T03:00:36;4.30;;;3.90;;
18661;SDS011;61528;49.456;11.098;2023-02-19T03:03:23;4.70;;;3.53;;
18661;SDS011;61528;49.456;11.098;2023-02-19T03:05:50;4.60;;;4.20;;
18661;SDS011;61528;49.456;11.098;2023-02-19T03:11:05;3.63;;;3.33;;
18661;SDS011;61528;49.456;11.098;2023-02-19T03:13:53;3.80;;;3.50;;
18661;SDS011;61528;49.456;11.098;2023-02-19T03:16:41;4.43;;;4.00;;
18661;SDS011;61528;49.456;11.098;2023-02-19T03:19:27;4.00;;;3.70;;
18661;SDS011;61528;49.456;11.098;2023-02-19T03:21:55;3.80;;;3.50;;
18661;SDS011;61528;49.456;11.098;2023-02-19T03:24:32;3.90;;;3.60;;
18661;SDS011;61528;49.456;11.098;2023-02-19T03:27:18;3.50;;;3.20;;
18661;SDS011;61528;49.456;11.098;2023-02-19T03:29:45;3.47;;;3.17;;
18661;SDS011;61528;49.456;11.098;2023-02-19T03:32:15;3.60;;;3.30;;
18661;SDS011;61528;49.456;11.098;2023-02-19T03:34:45;3.73;;;3.33;;
18661;SDS011;61528;49.456;11.098;2023-02-19T03:37:15;4.23;;;3.47;;
18661;SDS011;61528;49.456;11.098;2023-02-19T03:39:45;3.70;;;3.40;;
18661;SDS011;61528;49.456;11.098;2023-02-19T03:52:11;3.70;;;3.40;;
18661;SDS011;61528;49.456;11.098;2023-02-19T03:54:45;3.80;;;3.50;;
18661;SDS011;61528;49.456;11.098;2023-02-19T03:57:17;3.70;;;3.27;;
18661;SDS011;61528;49.456;11.098;2023-02-19T03:59:50;3.60;;;3.30;;
18661;SDS011;61528;49.456;11.098;2023-02-19T04:05:15;3.70;;;3.40;;
18661;SDS011;61528;49.456;11.098;2023-02-19T04:07:48;3.47;;;2.73;;
18661;SDS011;61528;49.456;11.098;2023-02-19T04:10:17;3.10;;;2.80;;
18661;SDS011;61528;49.456;11.098;2023-02-19T04:12:52;2.23;;;2.03;;
18661;SDS011;61528;49.456;11.098;2023-02-19T04:15:24;3.43;;;3.13;;
18661;SDS011;61528;49.456;11.098;2023-02-19T04:17:54;3.53;;;3.23;;
18661;SDS011;61528;49.456;11.098;2023-02-19T04:20:21;2.83;;;2.63;;
18661;SDS011;61528;49.456;11.098;2023-02-19T04:22:50;3.37;;;3.07;;
18661;SDS011;61528;49.456;11.098;2023-02-19T04:25:16;3.30;;;3.00;;
18661;SDS011;61528;49.456;11.098;2023-02-19T04:27:43;3.43;;;3.17;;
18661;SDS011;61528;49.456;11.098;2023-02-19T04:30:11;3.43;;;3.13;;
18661;SDS011;61528;49.456;11.098;2023-02-19T04:32:38;3.40;;;3.20;;
18661;SDS011;61528;49.456;11.098;2023-02-19T04:35:04;3.90;;;3.60;;
18661;SDS011;61528;49.456;11.098;2023-02-19T04:37:31;3.90;;;3.50;;
18661;SDS011;61528;49.456;11.098;2023-02-19T04:39:57;3.57;;;3.27;;
18661;SDS011;61528;49.456;11.098;2023-02-19T04:42:23;3.67;;;3.37;;
18661;SDS011;61528;49.456;11.098;2023-02-19T04:44:49;3.50;;;3.20;;
18661;SDS011;61528;49.456;11.098;2023-02-19T04:47:16;3.67;;;3.37;;
18661;SDS011;61528;49.456;11.098;2023-02-19T04:49:43;3.77;;;3.47;;
18661;SDS011;61528;49.456;11.098;2023-02-19T04:52:09;3.60;;;3.33;;
18661;SDS011;61528;49.456;11.098;2023-02-19T04:54:36;3.77;;;3.43;;
18661;SDS011;61528;49.456;11.098;2023-02-19T04:57:02;3.63;;;3.30;;
18661;SDS011;61528;49.456;11.098;2023-02-19T04:59:28;3.30;;;3.10;;
18661;SDS011;61528;49.456;11.098;2023-02-19T05:01:55;3.57;;;3.33;;
18661;SDS011;61528;49.456;11.098;2023-02-19T05:04:22;3.77;;;3.47;;
18661;SDS011;61528;49.456;11.098;2023-02-19T05:06:48;3.80;;;3.50;;
18661;SDS011;61528;49.456;11.098;2023-02-19T05:09:15;3.53;;;3.27;;
18661;SDS011;61528;49.456;11.098;2023-02-19T05:11:41;3.53;;;3.23;;
18661;SDS011;61528;49.456;11.098;2023-02-19T05:14:07;3.43;;;3.13;;
18661;SDS011;61528;49.456;11.098;2023-02-19T05:16:34;3.47;;;3.17;;
18661;SDS011;61528;49.456;11.098;2023-02-19T05:19:00;3.53;;;3.23;;
18661;SDS011;61528;49.456;11.098;2023-02-19T05:21:26;3.10;;;2.80;;
18661;SDS011;61528;49.456;11.098;2023-02-19T05:23:52;3.33;;;3.03;;
18661;SDS011;61528;49.456;11.098;2023-02-19T05:26:20;3.00;;;2.80;;
18661;SDS011;61528;49.456;11.098;2023-02-19T05:28:48;2.90;;;2.70;;
18661;SDS011;61528;49.456;11.098;2023-02-19T05:31:15;2.80;;;2.60;;
18661;SDS011;61528;49.456;11.098;2023-02-19T05:33:41;2.80;;;2.43;;
18661;SDS011;61528;49.456;11.098;2023-02-19T05:36:09;2.40;;;2.20;;
18661;SDS011;61528;49.456;11.098;2023-02-19T05:38:35;2.63;;;2.43;;
18661;SDS011;61528;49.456;11.098;2023-02-19T05:41:21;2.40;;;2.20;;
18661;SDS011;61528;49.456;11.098;2023-02-19T05:43:48;2.20;;;2.00;;
18661;SDS011;61528;49.456;11.098;2023-02-19T05:46:15;2.40;;;2.20;;
18661;SDS011;61528;49.456;11.098;2023-02-19T05:48:41;2.20;;;2.00;;
18661;SDS011;61528;49.456;11.098;2023-02-19T05:51:09;2.13;;;2.03;;
18661;SDS011;61528;49.456;11.098;2023-02-19T05:53:36;2.30;;;2.10;;
18661;SDS011;61528;49.456;11.098;2023-02-19T05:56:02;2.10;;;2.00;;
18661;SDS011;61528;49.456;11.098;2023-02-19T05:58:29;2.30;;;2.10;;
18661;SDS011;61528;49.456;11.098;2023-02-19T06:00:55;2.00;;;1.90;;
18661;SDS011;61528;49.456;11.098;2023-02-19T06:03:22;2.33;;;2.13;;
18661;SDS011;61528;49.456;11.098;2023-02-19T06:05:48;2.40;;;1.87;;
18661;SDS011;61528;49.456;11.098;2023-02-19T06:08:14;2.13;;;1.90;;
18661;SDS011;61528;49.456;11.098;2023-02-19T06:10:41;2.10;;;1.90;;
18661;SDS011;61528;49.456;11.098;2023-02-19T06:13:07;2.20;;;2.00;;
18661;SDS011;61528;49.456;11.098;2023-02-19T06:15:35;2.10;;;2.00;;
18661;SDS011;61528;49.456;11.098;2023-02-19T06:18:02;1.97;;;1.87;;
18661;SDS011;61528;49.456;11.098;2023-02-19T06:20:28;2.40;;;2.20;;
18661;SDS011;61528;49.456;11.098;2023-02-19T06:22:55;1.90;;;1.80;;
18661;SDS011;61528;49.456;11.098;2023-02-19T06:25:21;2.40;;;2.10;;
18661;SDS011;61528;49.456;11.098;2023-02-19T06:27:51;2.20;;;2.10;;
18661;SDS011;61528;49.456;11.098;2023-02-19T06:30:17;1.93;;;1.73;;
18661;SDS011;61528;49.456;11.098;2023-02-19T06:32:43;2.37;;;2.17;;
18661;SDS011;61528;49.456;11.098;2023-02-19T06:35:09;2.00;;;1.90;;
18661;SDS011;61528;49.456;11.098;2023-02-19T06:37:36;2.60;;;2.40;;
18661;SDS011;61528;49.456;11.098;2023-02-19T06:40:02;2.60;;;2.40;;
18661;SDS011;61528;49.456;11.098;2023-02-19T06:42:31;2.70;;;2.50;;
18661;SDS011;61528;49.456;11.098;2023-02-19T06:44:58;2.80;;;2.27;;
18661;SDS011;61528;49.456;11.098;2023-02-19T06:47:24;2.00;;;1.90;;
18661;SDS011;61528;49.456;11.098;2023-02-19T06:49:50;2.00;;;1.90;;
18661;SDS011;61528;49.456;11.098;2023-02-19T06:52:16;2.50;;;2.30;;
18661;SDS011;61528;49.456;11.098;2023-02-19T06:54:43;2.00;;;1.80;;
18661;SDS011;61528;49.456;11.098;2023-02-19T06:57:12;2.30;;;2.10;;
18661;SDS011;61528;49.456;11.098;2023-02-19T06:59:38;2.20;;;2.00;;
18661;SDS011;61528;49.456;11.098;2023-02-19T07:02:04;2.20;;;2.10;;
18661;SDS011;61528;49.456;11.098;2023-02-19T07:04:30;2.03;;;1.93;;
18661;SDS011;61528;49.456;11.098;2023-02-19T07:06:57;2.30;;;2.10;;
18661;SDS011;61528;49.456;11.098;2023-02-19T07:09:24;2.03;;;1.90;;
18661;SDS011;61528;49.456;11.098;2023-02-19T07:11:52;2.20;;;2.00;;
18661;SDS011;61528;49.456;11.098;2023-02-19T07:14:19;1.87;;;1.77;;
18661;SDS011;61528;49.456;11.098;2023-02-19T07:16:45;2.07;;;1.87;;
18661;SDS011;61528;49.456;11.098;2023-02-19T07:19:13;1.80;;;1.70;;
18661;SDS011;61528;49.456;11.098;2023-02-19T07:21:39;1.80;;;1.70;;
18661;SDS011;61528;49.456;11.098;2023-02-19T07:24:06;2.13;;;1.93;;
18661;SDS011;61528;49.456;11.098;2023-02-19T07:26:33;1.73;;;1.63;;
18661;SDS011;61528;49.456;11.098;2023-02-19T07:29:00;1.60;;;1.50;;
18661;SDS011;61528;49.456;11.098;2023-02-19T07:31:26;1.50;;;1.40;;
18661;SDS011;61528;49.456;11.098;2023-02-19T07:33:53;1.40;;;1.30;;
18661;SDS011;61528;49.456;11.098;2023-02-19T07:36:20;1.63;;;1.53;;
18661;SDS011;61528;49.456;11.098;2023-02-19T07:38:46;2.17;;;1.70;;
18661;SDS011;61528;49.456;11.098;2023-02-19T07:41:19;1.23;;;1.20;;
18661;SDS011;61528;49.456;11.098;2023-02-19T07:43:45;1.37;;;1.27;;
18661;SDS011;61528;49.456;11.098;2023-02-19T07:46:12;1.90;;;1.70;;
18661;SDS011;61528;49.456;11.098;2023-02-19T07:48:39;1.60;;;1.50;;
18661;SDS011;61528;49.456;11.098;2023-02-19T07:51:06;1.50;;;1.40;;
18661;SDS011;61528;49.456;11.098;2023-02-19T07:53:33;1.80;;;1.70;;
18661;SDS011;61528;49.456;11.098;2023-02-19T07:56:04;1.30;;;1.20;;
18661;SDS011;61528;49.456;11.098;2023-02-19T07:58:31;1.80;;;1.70;;
18661;SDS011;61528;49.456;11.098;2023-02-19T08:01:04;1.60;;;1.50;;
18661;SDS011;61528;49.456;11.098;2023-02-19T08:03:31;1.40;;;1.30;;
18661;SDS011;61528;49.456;11.098;2023-02-19T08:05:57;1.60;;;1.50;;
18661;SDS011;61528;49.456;11.098;2023-02-19T08:08:23;1.70;;;1.60;;
18661;SDS011;61528;49.456;11.098;2023-02-19T08:10:50;2.07;;;1.57;;
18661;SDS011;61528;49.456;11.098;2023-02-19T08:13:34;1.93;;;1.50;;
18661;SDS011;61528;49.456;11.098;2023-02-19T08:18:27;1.77;;;1.67;;
18661;SDS011;61528;49.456;11.098;2023-02-19T08:20:54;1.60;;;1.50;;
18661;SDS011;61528;49.456;11.098;2023-02-19T08:23:21;1.60;;;1.50;;
18661;SDS011;61528;49.456;11.098;2023-02-19T08:25:47;1.70;;;1.60;;
18661;SDS011;61528;49.456;11.098;2023-02-19T08:28:14;1.50;;;1.40;;
18661;SDS011;61528;49.456;11.098;2023-02-19T08:30:40;1.50;;;1.40;;
18661;SDS011;61528;49.456;11.098;2023-02-19T08:33:09;1.70;;;1.27;;
18661;SDS011;61528;49.456;11.098;2023-02-19T08:35:36;1.50;;;1.40;;
18661;SDS011;61528;49.456;11.098;2023-02-19T08:38:03;1.80;;;1.20;;
18661;SDS011;61528;49.456;11.098;2023-02-19T08:40:30;2.30;;;1.37;;
18661;SDS011;61528;49.456;11.098;2023-02-19T08:43:04;1.00;;;1.00;;
18661;SDS011;61528;49.456;11.098;2023-02-19T08:45:31;1.13;;;1.13;;
18661;SDS011;61528;49.456;11.098;2023-02-19T08:47:57;1.03;;;1.00;;
18661;SDS011;61528;49.456;11.098;2023-02-19T08:50:24;0.90;;;0.90;;
18661;SDS011;61528;49.456;11.098;2023-02-19T08:52:50;0.93;;;0.93;;
18661;SDS011;61528;49.456;11.098;2023-02-19T08:55:18;7.63;;;3.20;;
18661;SDS011;61528;49.456;11.098;2023-02-19T08:57:44;1.33;;;1.20;;
18661;SDS011;61528;49.456;11.098;2023-02-19T09:00:10;1.50;;;1.40;;
18661;SDS011;61528;49.456;11.098;2023-02-19T09:02:37;1.03;;;1.00;;
18661;SDS011;61528;49.456;11.098;2023-02-19T09:05:03;1.10;;;1.00;;
18661;SDS011;61528;49.456;11.098;2023-02-19T09:07:30;1.20;;;0.97;;
18661;SDS011;61528;49.456;11.098;2023-02-19T09:09:57;2.57;;;1.13;;
18661;SDS011;61528;49.456;11.098;2023-02-19T09:12:23;1.37;;;1.27;;
18661;SDS011;61528;49.456;11.098;2023-02-19T09:14:50;3.20;;;1.00;;
18661;SDS011;61528;49.456;11.098;2023-02-19T09:17:16;1.83;;;1.20;;
18661;SDS011;61528;49.456;11.098;2023-02-19T09:19:42;5.17;;;3.77;;
18661;SDS011;61528;49.456;11.098;2023-02-19T09:22:08;1.77;;;1.60;;
18661;SDS011;61528;49.456;11.098;2023-02-19T09:24:35;1.47;;;1.30;;
18661;SDS011;61528;49.456;11.098;2023-02-19T09:27:01;1.40;;;1.30;;
18661;SDS011;61528;49.456;11.098;2023-02-19T09:29:27;2.00;;;1.40;;
18661;SDS011;61528;49.456;11.098;2023-02-19T09:31:57;1.63;;;1.20;;
18661;SDS011;61528;49.456;11.098;2023-02-19T09:34:27;1.50;;;1.40;;
18661;SDS011;61528;49.456;11.098;2023-02-19T09:36:53;2.33;;;2.03;;
18661;SDS011;61528;49.456;11.098;2023-02-19T09:39:20;3.63;;;1.90;;
18661;SDS011;61528;49.456;11.098;2023-02-19T09:41:48;3.67;;;2.47;;
18661;SDS011;61528;49.456;11.098;2023-02-19T09:44:20;4.00;;;3.27;;
18661;SDS011;61528;49.456;11.098;2023-02-19T09:46:49;1.67;;;1.50;;
18661;SDS011;61528;49.456;11.098;2023-02-19T09:49:20;2.43;;;1.93;;
18661;SDS011;61528;49.456;11.098;2023-02-19T09:51:48;2.00;;;1.67;;
18661;SDS011;61528;49.456;11.098;2023-02-19T09:54:26;1.90;;;1.80;;
18661;SDS011;61528;49.456;11.098;2023-02-19T09:56:54;2.60;;;1.77;;
18661;SDS011;61528;49.456;11.098;2023-02-19T09:59:24;1.70;;;1.60;;
18661;SDS011;61528;49.456;11.098;2023-02-19T10:01:54;2.73;;;1.90;;
18661;SDS011;61528;49.456;11.098;2023-02-19T10:04:21;2.60;;;1.80;;
18661;SDS011;61528;49.456;11.098;2023-02-19T10:06:53;1.73;;;1.63;;
18661;SDS011;61528;49.456;11.098;2023-02-19T10:09:25;1.90;;;1.70;;
18661;SDS011;61528;49.456;11.098;2023-02-19T10:11:55;1.63;;;1.53;;
18661;SDS011;61528;49.456;11.098;2023-02-19T10:14:34;1.70;;;1.60;;
18661;SDS011;61528;49.456;11.098;2023-02-19T10:17:02;3.17;;;1.87;;
18661;SDS011;61528;49.456;11.098;2023-02-19T10:19:31;2.73;;;2.00;;
18661;SDS011;61528;49.456;11.098;2023-02-19T10:21:58;2.63;;;1.90;;
18661;SDS011;61528;49.456;11.098;2023-02-19T10:24:26;1.70;;;1.60;;
18661;SDS011;61528;49.456;11.098;2023-02-19T10:26:53;2.20;;;2.00;;
18661;SDS011;61528;49.456;11.098;2023-02-19T10:29:20;2.47;;;1.80;;
18661;SDS011;61528;49.456;11.098;2023-02-19T10:31:48;2.93;;;2.10;;
18661;SDS011;61528;49.456;11.098;2023-02-19T10:34:18;2.63;;;2.30;;
18661;SDS011;61528;49.456;11.098;2023-02-19T10:36:46;2.53;;;1.70;;
18661;SDS011;61528;49.456;11.098;2023-02-19T10:41:47;4.37;;;1.80;;
18661;SDS011;61528;49.456;11.098;2023-02-19T10:44:15;2.50;;;1.60;;
18661;SDS011;61528;49.456;11.098;2023-02-19T10:46:44;1.60;;;1.50;;
18661;SDS011;61528;49.456;11.098;2023-02-19T10:49:27;2.63;;;1.63;;
18661;SDS011;61528;49.456;11.098;2023-02-19T10:51:59;4.43;;;2.00;;
18661;SDS011;61528;49.456;11.098;2023-02-19T10:59:47;3.10;;;1.70;;
18661;SDS011;61528;49.456;11.098;2023-02-19T11:02:17;2.90;;;1.60;;
18661;SDS011;61528;49.456;11.098;2023-02-19T11:05:04;2.97;;;1.90;;
18661;SDS011;61528;49.456;11.098;2023-02-19T11:07:30;3.27;;;2.10;;
18661;SDS011;61528;49.456;11.098;2023-02-19T11:09:57;3.00;;;2.07;;
18661;SDS011;61528;49.456;11.098;2023-02-19T11:12:28;4.93;;;2.40;;
18661;SDS011;61528;49.456;11.098;2023-02-19T11:20:28;3.23;;;2.10;;
18661;SDS011;61528;49.456;11.098;2023-02-19T11:23:16;1.90;;;1.80;;
18661;SDS011;61528;49.456;11.098;2023-02-19T11:25:46;3.13;;;2.47;;
18661;SDS011;61528;49.456;11.098;2023-02-19T11:28:26;3.90;;;3.30;;
18661;SDS011;61528;49.456;11.098;2023-02-19T11:30:53;2.60;;;2.00;;
18661;SDS011;61528;49.456;11.098;2023-02-19T11:33:28;5.43;;;3.07;;
18661;SDS011;61528;49.456;11.098;2023-02-19T11:38:40;3.83;;;2.77;;
18661;SDS011;61528;49.456;11.098;2023-02-19T11:46:16;2.60;;;2.40;;
18661;SDS011;61528;49.456;11.098;2023-02-19T11:49:02;4.63;;;2.50;;
18661;SDS011;61528;49.456;11.098;2023-02-19T11:56:29;3.30;;;2.20;;
18661;SDS011;61528;49.456;11.098;2023-02-19T11:59:01;2.40;;;2.20;;
18661;SDS011;61528;49.456;11.098;2023-02-19T12:01:50;3.13;;;2.37;;
18661;SDS011;61528;49.456;11.098;2023-02-19T12:12:06;4.23;;;2.50;;
18661;SDS011;61528;49.456;11.098;2023-02-19T12:22:26;4.13;;;2.13;;
18661;SDS011;61528;49.456;11.098;2023-02-19T12:30:35;3.83;;;2.57;;
18661;SDS011;61528;49.456;11.098;2023-02-19T12:38:35;3.70;;;2.60;;
18661;SDS011;61528;49.456;11.098;2023-02-19T12:43:36;2.93;;;2.40;;
18661;SDS011;61528;49.456;11.098;2023-02-19T12:46:11;3.20;;;2.73;;
18661;SDS011;61528;49.456;11.098;2023-02-19T12:48:57;4.30;;;2.37;;
18661;SDS011;61528;49.456;11.098;2023-02-19T12:51:35;5.50;;;2.63;;
18661;SDS011;61528;49.456;11.098;2023-02-19T12:54:05;3.57;;;2.30;;
18661;SDS011;61528;49.456;11.098;2023-02-19T12:56:41;2.60;;;2.40;;
18661;SDS011;61528;49.456;11.098;2023-02-19T12:59:09;3.53;;;2.20;;
18661;SDS011;61528;49.456;11.098;2023-02-19T13:01:38;2.90;;;2.30;;
18661;SDS011;61528;49.456;11.098;2023-02-19T13:04:13;3.70;;;2.07;;
18661;SDS011;61528;49.456;11.098;2023-02-19T13:06:49;3.17;;;2.30;;
18661;SDS011;61528;49.456;11.098;2023-02-19T13:11:58;2.70;;;1.90;;
18661;SDS011;61528;49.456;11.098;2023-02-19T13:14:39;3.60;;;2.00;;
18661;SDS011;61528;49.456;11.098;2023-02-19T13:17:12;3.50;;;2.33;;
18661;SDS011;61528;49.456;11.098;2023-02-19T13:19:43;3.27;;;2.10;;
18661;SDS011;61528;49.456;11.098;2023-02-19T13:22:16;4.20;;;2.13;;
18661;SDS011;61528;49.456;11.098;2023-02-19T13:25:02;3.07;;;2.30;;
18661;SDS011;61528;49.456;11.098;2023-02-19T13:30:14;3.37;;;2.17;;
18661;SDS011;61528;49.456;11.098;2023-02-19T13:38:36;3.50;;;2.27;;
18661;SDS011;61528;49.456;11.098;2023-02-19T13:41:03;3.00;;;2.60;;
18661;SDS011;61528;49.456;11.098;2023-02-19T13:43:34;2.17;;;1.70;;
18661;SDS011;61528;49.456;11.098;2023-02-19T13:46:05;2.07;;;1.70;;
18661;SDS011;61528;49.456;11.098;2023-02-19T13:48:37;3.63;;;1.87;;
18661;SDS011;61528;49.456;11.098;2023-02-19T13:56:43;2.90;;;2.20;;
18661;SDS011;61528;49.456;11.098;2023-02-19T14:04:17;3.50;;;2.67;;
18661;SDS011;61528;49.456;11.098;2023-02-19T14:14:40;3.20;;;2.20;;
18661;SDS011;61528;49.456;11.098;2023-02-19T14:28:01;3.23;;;2.20;;
18661;SDS011;61528;49.456;11.098;2023-02-19T14:33:29;6.10;;;3.33;;
18661;SDS011;61528;49.456;11.098;2023-02-19T14:36:04;12.60;;;6.73;;
18661;SDS011;61528;49.456;11.098;2023-02-19T14:38:33;5.33;;;3.33;;
18661;SDS011;61528;49.456;11.098;2023-02-19T14:41:01;3.13;;;2.00;;
18661;SDS011;61528;49.456;11.098;2023-02-19T14:43:28;4.87;;;2.10;;
18661;SDS011;61528;49.456;11.098;2023-02-19T14:45:56;4.07;;;2.27;;
18661;SDS011;61528;49.456;11.098;2023-02-19T14:48:33;2.50;;;1.90;;
18661;SDS011;61528;49.456;11.098;2023-02-19T14:51:11;2.47;;;2.20;;
18661;SDS011;61528;49.456;11.098;2023-02-19T14:53:40;2.27;;;1.80;;
18661;SDS011;61528;49.456;11.098;2023-02-19T14:56:24;3.93;;;2.17;;
18661;SDS011;61528;49.456;11.098;2023-02-19T14:59:07;3.10;;;2.00;;
18661;SDS011;61528;49.456;11.098;2023-02-19T15:01:34;4.27;;;2.17;;
18661;SDS011;61528;49.456;11.098;2023-02-19T15:04:00;4.10;;;2.13;;
18661;SDS011;61528;49.456;11.098;2023-02-19T15:06:26;3.00;;;2.00;;
18661;SDS011;61528;49.456;11.098;2023-02-19T15:08:59;2.03;;;1.90;;
18661;SDS011;61528;49.456;11.098;2023-02-19T15:11:27;2.40;;;1.93;;
18661;SDS011;61528;49.456;11.098;2023-02-19T15:13:57;2.93;;;2.20;;
18661;SDS011;61528;49.456;11.098;2023-02-19T15:16:24;4.07;;;1.93;;
18661;SDS011;61528;49.456;11.098;2023-02-19T15:18:51;4.00;;;2.50;;
18661;SDS011;61528;49.456;11.098;2023-02-19T15:23:48;4.63;;;2.47;;
18661;SDS011;61528;49.456;11.098;2023-02-19T15:26:19;2.60;;;2.40;;
18661;SDS011;61528;49.456;11.098;2023-02-19T15:28:46;4.13;;;2.40;;
18661;SDS011;61528;49.456;11.098;2023-02-19T15:31:21;5.30;;;2.70;;
18661;SDS011;61528;49.456;11.098;2023-02-19T15:33:48;2.83;;;2.47;;
18661;SDS011;61528;49.456;11.098;2023-02-19T15:36:15;5.10;;;2.30;;
18661;SDS011;61528;49.456;11.098;2023-02-19T15:38:42;3.50;;;2.00;;
18661;SDS011;61528;49.456;11.098;2023-02-19T15:41:18;3.60;;;2.53;;
18661;SDS011;61528;49.456;11.098;2023-02-19T15:43:52;3.87;;;1.83;;
18661;SDS011;61528;49.456;11.098;2023-02-19T15:46:20;4.77;;;1.90;;
18661;SDS011;61528;49.456;11.098;2023-02-19T15:51:15;3.30;;;2.10;;
18661;SDS011;61528;49.456;11.098;2023-02-19T15:53:44;3.93;;;2.20;;
18661;SDS011;61528;49.456;11.098;2023-02-19T16:01:28;3.03;;;2.10;;
18661;SDS011;61528;49.456;11.098;2023-02-19T16:03:55;2.87;;;2.20;;
18661;SDS011;61528;49.456;11.098;2023-02-19T16:06:23;2.80;;;1.90;;
18661;SDS011;61528;49.456;11.098;2023-02-19T16:17:10;2.73;;;2.20;;
18661;SDS011;61528;49.456;11.098;2023-02-19T16:22:16;3.43;;;2.10;;
18661;SDS011;61528;49.456;11.098;2023-02-19T16:24:47;2.97;;;2.10;;
18661;SDS011;61528;49.456;11.098;2023-02-19T16:27:26;2.83;;;2.10;;
18661;SDS011;61528;49.456;11.098;2023-02-19T16:29:53;3.40;;;2.20;;
18661;SDS011;61528;49.456;11.098;2023-02-19T16:32:20;4.50;;;2.50;;
18661;SDS011;61528;49.456;11.098;2023-02-19T16:34:46;2.50;;;2.20;;
18661;SDS011;61528;49.456;11.098;2023-02-19T16:43:09;3.93;;;2.33;;
18661;SDS011;61528;49.456;11.098;2023-02-19T16:45:21;4.87;;;2.50;;
18661;SDS011;61528;49.456;11.098;2023-02-19T16:47:48;5.30;;;3.00;;
18661;SDS011;61528;49.456;11.098;2023-02-19T16:50:22;3.33;;;2.57;;
18661;SDS011;61528;49.456;11.098;2023-02-19T16:52:58;3.47;;;2.80;;
18661;SDS011;61528;49.456;11.098;2023-02-19T16:55:25;4.77;;;2.60;;
18661;SDS011;61528;49.456;11.098;2023-02-19T16:57:52;3.83;;;2.50;;
18661;SDS011;61528;49.456;11.098;2023-02-19T17:00:19;5.13;;;2.63;;
18661;SDS011;61528;49.456;11.098;2023-02-19T17:02:46;5.27;;;2.70;;
18661;SDS011;61528;49.456;11.098;2023-02-19T17:05:13;5.17;;;2.90;;
18661;SDS011;61528;49.456;11.098;2023-02-19T17:07:39;4.57;;;3.07;;
18661;SDS011;61528;49.456;11.098;2023-02-19T17:10:06;4.60;;;2.80;;
18661;SDS011;61528;49.456;11.098;2023-02-19T17:12:33;3.73;;;2.70;;
18661;SDS011;61528;49.456;11.098;2023-02-19T17:14:59;4.43;;;3.00;;
18661;SDS011;61528;49.456;11.098;2023-02-19T17:17:25;4.87;;;3.00;;
18661;SDS011;61528;49.456;11.098;2023-02-19T17:19:51;5.27;;;3.10;;
18661;SDS011;61528;49.456;11.098;2023-02-19T17:22:17;6.47;;;3.07;;
18661;SDS011;61528;49.456;11.098;2023-02-19T17:24:44;4.43;;;2.83;;
18661;SDS011;61528;49.456;11.098;2023-02-19T17:27:11;3.90;;;2.97;;
18661;SDS011;61528;49.456;11.098;2023-02-19T17:29:38;5.10;;;3.03;;